sensor_id;sensor_type;location;lat;lon;timestamp;noise_LAeq;noise_LA_min;noise_LA_max;noise_LA01;noise_LA95
61095;Laerm;20450;49.074;9.158;2024-01-11T00:01:31;44.53;43.19;46.23;;
61095;Laerm;20450;49.074;9.158;2024-01-11T00:03:59;44.53;43.04;48.39;;
61095;Laerm;20450;49.074;9.158;2024-01-11T00:06:29;44.39;42.82;45.91;;
61095;Laerm;20450;49.074;9.158;2024-01-11T00:08:56;44.07;42.53;45.27;;
61095;Laerm;20450;49.074;9.158;2024-01-11T00:11:24;44.04;42.65;45.36;;
61095;Laerm;20450;49.074;9.158;2024-01-11T00:13:54;44.33;42.93;46.64;;
61095;Laerm;20450;49.074;9.158;2024-01-11T00:16:21;44.40;42.98;46.18;;
61095;Laerm;20450;49.074;9.158;2024-01-11T00:18:48;44.28;42.82;45.51;;
61095;Laerm;20450;49.074;9.158;2024-01-11T00:21:15;44.20;42.88;45.30;;
61095;Laerm;20450;49.074;9.158;2024-01-11T00:23:42;44.20;42.71;45.33;;
61095;Laerm;20450;49.074;9.158;2024-01-11T00:26:12;44.40;42.98;45.72;;
61095;Laerm;20450;49.074;9.158;2024-01-11T00:28:40;44.22;42.65;45.42;;
61095;Laerm;20450;49.074;9.158;2024-01-11T00:31:09;44.40;42.88;48.78;;
61095;Laerm;20450;49.074;9.158;2024-01-11T00:33:36;44.31;42.93;45.51;;
61095;Laerm;20450;49.074;9.158;2024-01-11T00:36:04;44.29;42.98;45.89;;
61095;Laerm;20450;49.074;9.158;2024-01-11T00:38:31;43.97;42.47;45.23;;
61095;Laerm;20450;49.074;9.158;2024-01-11T00:40:58;43.92;42.53;46.18;;
61095;Laerm;20450;49.074;9.158;2024-01-11T00:43:25;44.17;42.65;45.54;;
61095;Laerm;20450;49.074;9.158;2024-01-11T00:45:52;44.24;42.82;45.42;;
61095;Laerm;20450;49.074;9.158;2024-01-11T00:48:21;44.26;42.59;45.86;;
61095;Laerm;20450;49.074;9.158;2024-01-11T00:50:49;44.24;42.76;45.69;;
61095;Laerm;20450;49.074;9.158;2024-01-11T00:53:16;44.36;42.88;46.28;;
61095;Laerm;20450;49.074;9.158;2024-01-11T00:55:43;44.20;42.88;45.69;;
61095;Laerm;20450;49.074;9.158;2024-01-11T00:58:11;44.29;42.82;45.65;;
61095;Laerm;20450;49.074;9.158;2024-01-11T01:00:38;44.59;42.65;46.07;;
61095;Laerm;20450;49.074;9.158;2024-01-11T01:03:05;44.48;43.14;45.89;;
61095;Laerm;20450;49.074;9.158;2024-01-11T01:05:34;44.31;42.82;45.72;;
61095;Laerm;20450;49.074;9.158;2024-01-11T01:08:03;44.32;42.88;45.66;;
61095;Laerm;20450;49.074;9.158;2024-01-11T01:10:30;44.31;42.93;45.66;;
61095;Laerm;20450;49.074;9.158;2024-01-11T01:12:57;44.44;43.09;46.18;;
61095;Laerm;20450;49.074;9.158;2024-01-11T01:15:25;44.24;42.76;45.48;;
61095;Laerm;20450;49.074;9.158;2024-01-11T01:17:52;44.31;42.82;45.57;;
61095;Laerm;20450;49.074;9.158;2024-01-11T01:20:19;44.26;42.76;45.66;;
61095;Laerm;20450;49.074;9.158;2024-01-11T01:22:49;44.29;42.76;45.69;;
61095;Laerm;20450;49.074;9.158;2024-01-11T01:25:16;44.29;42.98;46.15;;
61095;Laerm;20450;49.074;9.158;2024-01-11T01:27:44;44.31;42.98;45.63;;
61095;Laerm;20450;49.074;9.158;2024-01-11T01:30:11;44.28;42.65;45.60;;
61095;Laerm;20450;49.074;9.158;2024-01-11T01:32:38;44.32;43.04;45.57;;
61095;Laerm;20450;49.074;9.158;2024-01-11T01:35:05;44.50;43.19;46.05;;
61095;Laerm;20450;49.074;9.158;2024-01-11T01:37:34;44.41;42.59;45.94;;
61095;Laerm;20450;49.074;9.158;2024-01-11T01:40:05;44.49;42.16;45.94;;
61095;Laerm;20450;49.074;9.158;2024-01-11T01:42:33;44.53;42.93;45.91;;
61095;Laerm;20450;49.074;9.158;2024-01-11T01:45:00;44.12;42.53;45.69;;
61095;Laerm;20450;49.074;9.158;2024-01-11T01:47:28;44.06;42.47;45.69;;
61095;Laerm;20450;49.074;9.158;2024-01-11T01:49:55;44.00;42.47;45.17;;
61095;Laerm;20450;49.074;9.158;2024-01-11T01:52:24;44.13;42.82;45.30;;
61095;Laerm;20450;49.074;9.158;2024-01-11T01:54:52;44.06;42.71;45.27;;
61095;Laerm;20450;49.074;9.158;2024-01-11T01:57:21;44.05;42.59;45.42;;
61095;Laerm;20450;49.074;9.158;2024-01-11T01:59:51;43.90;42.59;45.14;;
61095;Laerm;20450;49.074;9.158;2024-01-11T02:02:19;43.76;42.29;45.01;;
61095;Laerm;20450;49.074;9.158;2024-01-11T02:04:49;43.74;42.29;44.83;;
61095;Laerm;20450;49.074;9.158;2024-01-11T02:07:16;43.72;42.29;45.04;;
61095;Laerm;20450;49.074;9.158;2024-01-11T02:09:44;43.68;41.96;44.87;;
61095;Laerm;20450;49.074;9.158;2024-01-11T02:12:12;43.78;41.82;45.04;;
61095;Laerm;20450;49.074;9.158;2024-01-11T02:14:40;43.81;42.29;45.14;;
61095;Laerm;20450;49.074;9.158;2024-01-11T02:17:07;43.93;42.09;45.36;;
61095;Laerm;20450;49.074;9.158;2024-01-11T02:19:34;44.36;42.82;45.69;;
61095;Laerm;20450;49.074;9.158;2024-01-11T02:22:12;44.21;42.76;45.60;;
61095;Laerm;20450;49.074;9.158;2024-01-11T02:24:43;44.21;42.65;45.46;;
61095;Laerm;20450;49.074;9.158;2024-01-11T02:27:10;43.96;42.53;45.23;;
61095;Laerm;20450;49.074;9.158;2024-01-11T02:29:38;43.86;42.47;45.23;;
61095;Laerm;20450;49.074;9.158;2024-01-11T02:32:05;44.21;42.47;45.42;;
61095;Laerm;20450;49.074;9.158;2024-01-11T02:34:34;43.92;42.47;45.42;;
61095;Laerm;20450;49.074;9.158;2024-01-11T02:37:01;44.11;42.59;46.91;;
61095;Laerm;20450;49.074;9.158;2024-01-11T02:39:29;44.03;42.59;45.42;;
61095;Laerm;20450;49.074;9.158;2024-01-11T02:41:58;44.10;42.41;45.77;;
61095;Laerm;20450;49.074;9.158;2024-01-11T02:44:26;44.36;42.71;46.64;;
61095;Laerm;20450;49.074;9.158;2024-01-11T02:46:53;44.59;43.09;46.20;;
61095;Laerm;20450;49.074;9.158;2024-01-11T02:49:20;43.94;42.47;45.30;;
61095;Laerm;20450;49.074;9.158;2024-01-11T02:51:47;43.85;42.53;45.07;;
61095;Laerm;20450;49.074;9.158;2024-01-11T02:54:14;43.92;42.47;45.07;;
61095;Laerm;20450;49.074;9.158;2024-01-11T02:56:41;43.97;42.59;45.33;;
61095;Laerm;20450;49.074;9.158;2024-01-11T02:59:10;44.17;42.93;45.66;;
61095;Laerm;20450;49.074;9.158;2024-01-11T03:01:37;44.18;42.65;45.72;;
61095;Laerm;20450;49.074;9.158;2024-01-11T03:04:05;44.04;42.71;45.17;;
61095;Laerm;20450;49.074;9.158;2024-01-11T03:06:32;43.94;42.59;45.11;;
61095;Laerm;20450;49.074;9.158;2024-01-11T03:08:59;44.30;42.88;45.86;;
61095;Laerm;20450;49.074;9.158;2024-01-11T03:11:26;44.05;42.71;45.45;;
61095;Laerm;20450;49.074;9.158;2024-01-11T03:13:53;43.96;42.47;45.33;;
61095;Laerm;20450;49.074;9.158;2024-01-11T03:16:22;43.88;42.22;45.14;;
61095;Laerm;20450;49.074;9.158;2024-01-11T03:18:49;43.79;42.22;45.04;;
61095;Laerm;20450;49.074;9.158;2024-01-11T03:21:17;43.84;41.89;45.20;;
61095;Laerm;20450;49.074;9.158;2024-01-11T03:23:45;43.93;42.47;45.23;;
61095;Laerm;20450;49.074;9.158;2024-01-11T03:26:17;44.01;42.53;45.17;;
61095;Laerm;20450;49.074;9.158;2024-01-11T03:28:44;44.09;42.53;45.36;;
61095;Laerm;20450;49.074;9.158;2024-01-11T03:31:11;43.99;42.59;45.57;;
61095;Laerm;20450;49.074;9.158;2024-01-11T03:33:40;44.01;42.53;45.66;;
61095;Laerm;20450;49.074;9.158;2024-01-11T03:36:09;43.94;42.35;45.80;;
61095;Laerm;20450;49.074;9.158;2024-01-11T03:38:39;43.88;42.35;45.14;;
61095;Laerm;20450;49.074;9.158;2024-01-11T03:41:10;43.82;42.35;44.97;;
61095;Laerm;20450;49.074;9.158;2024-01-11T03:43:37;43.81;42.35;45.14;;
61095;Laerm;20450;49.074;9.158;2024-01-11T03:46:04;43.79;42.22;45.04;;
61095;Laerm;20450;49.074;9.158;2024-01-11T03:48:32;43.86;42.53;48.28;;
61095;Laerm;20450;49.074;9.158;2024-01-11T03:51:00;43.78;42.22;44.90;;
61095;Laerm;20450;49.074;9.158;2024-01-11T03:53:28;43.86;41.89;45.07;;
61095;Laerm;20450;49.074;9.158;2024-01-11T03:55:55;43.73;42.16;44.90;;
61095;Laerm;20450;49.074;9.158;2024-01-11T03:58:22;43.85;42.41;45.94;;
61095;Laerm;20450;49.074;9.158;2024-01-11T04:00:49;43.91;42.35;45.86;;
61095;Laerm;20450;49.074;9.158;2024-01-11T04:03:16;44.05;42.59;47.18;;
61095;Laerm;20450;49.074;9.158;2024-01-11T04:05:43;43.97;42.47;45.20;;
61095;Laerm;20450;49.074;9.158;2024-01-11T04:08:18;44.14;42.59;45.54;;
61095;Laerm;20450;49.074;9.158;2024-01-11T04:10:48;44.31;42.65;45.60;;
61095;Laerm;20450;49.074;9.158;2024-01-11T04:13:15;44.55;43.04;46.80;;
61095;Laerm;20450;49.074;9.158;2024-01-11T04:15:42;44.57;43.19;46.65;;
61095;Laerm;20450;49.074;9.158;2024-01-11T04:18:09;44.21;42.69;45.59;;
61095;Laerm;20450;49.074;9.158;2024-01-11T04:20:36;44.09;42.76;45.27;;
61095;Laerm;20450;49.074;9.158;2024-01-11T04:23:03;44.25;42.82;47.63;;
61095;Laerm;20450;49.074;9.158;2024-01-11T04:25:32;43.93;42.47;48.64;;
61095;Laerm;20450;49.074;9.158;2024-01-11T04:27:58;43.73;42.09;44.94;;
61095;Laerm;20450;49.074;9.158;2024-01-11T04:30:27;43.72;42.35;45.14;;
61095;Laerm;20450;49.074;9.158;2024-01-11T04:32:54;43.71;41.96;44.90;;
61095;Laerm;20450;49.074;9.158;2024-01-11T04:35:21;43.80;42.29;47.34;;
61095;Laerm;20450;49.074;9.158;2024-01-11T04:37:48;43.73;42.22;44.89;;
61095;Laerm;20450;49.074;9.158;2024-01-11T04:40:15;43.79;42.29;45.51;;
61095;Laerm;20450;49.074;9.158;2024-01-11T04:42:43;43.78;42.22;45.57;;
61095;Laerm;20450;49.074;9.158;2024-01-11T04:45:10;43.84;41.89;45.39;;
61095;Laerm;20450;49.074;9.158;2024-01-11T04:47:37;44.04;42.53;47.63;;
61095;Laerm;20450;49.074;9.158;2024-01-11T04:50:07;44.23;42.59;48.95;;
61095;Laerm;20450;49.074;9.158;2024-01-11T04:52:36;44.00;42.59;45.36;;
61095;Laerm;20450;49.074;9.158;2024-01-11T04:55:03;43.88;42.65;45.30;;
61095;Laerm;20450;49.074;9.158;2024-01-11T04:57:30;43.97;42.59;45.60;;
61095;Laerm;20450;49.074;9.158;2024-01-11T05:00:00;44.09;42.65;45.39;;
61095;Laerm;20450;49.074;9.158;2024-01-11T05:02:30;44.14;42.53;46.50;;
61095;Laerm;20450;49.074;9.158;2024-01-11T05:04:57;44.15;42.29;46.69;;
61095;Laerm;20450;49.074;9.158;2024-01-11T05:07:23;43.91;42.41;46.82;;
61095;Laerm;20450;49.074;9.158;2024-01-11T05:09:50;43.92;42.47;45.23;;
61095;Laerm;20450;49.074;9.158;2024-01-11T05:12:17;44.06;42.71;45.57;;
61095;Laerm;20450;49.074;9.158;2024-01-11T05:14:44;44.23;42.98;48.80;;
61095;Laerm;20450;49.074;9.158;2024-01-11T05:17:14;43.84;42.22;45.14;;
61095;Laerm;20450;49.074;9.158;2024-01-11T05:19:43;43.93;42.41;46.50;;
61095;Laerm;20450;49.074;9.158;2024-01-11T05:22:10;44.09;42.16;49.40;;
61095;Laerm;20450;49.074;9.158;2024-01-11T05:24:37;43.87;42.29;45.48;;
61095;Laerm;20450;49.074;9.158;2024-01-11T05:27:04;43.87;42.35;45.27;;
61095;Laerm;20450;49.074;9.158;2024-01-11T05:29:31;43.91;42.53;45.20;;
61095;Laerm;20450;49.074;9.158;2024-01-11T05:31:58;43.94;42.53;45.17;;
61095;Laerm;20450;49.074;9.158;2024-01-11T05:34:27;44.07;42.59;46.78;;
61095;Laerm;20450;49.074;9.158;2024-01-11T05:36:55;44.07;42.53;47.16;;
61095;Laerm;20450;49.074;9.158;2024-01-11T05:39:25;44.28;42.59;48.29;;
61095;Laerm;20450;49.074;9.158;2024-01-11T05:41:52;44.39;42.82;54.30;;
61095;Laerm;20450;49.074;9.158;2024-01-11T05:44:20;44.12;42.41;47.67;;
61095;Laerm;20450;49.074;9.158;2024-01-11T05:46:48;44.15;42.41;52.17;;
61095;Laerm;20450;49.074;9.158;2024-01-11T05:49:14;44.35;42.53;52.97;;
61095;Laerm;20450;49.074;9.158;2024-01-11T05:51:43;44.26;42.88;46.76;;
61095;Laerm;20450;49.074;9.158;2024-01-11T05:54:10;44.49;42.93;48.57;;
61095;Laerm;20450;49.074;9.158;2024-01-11T05:56:38;44.65;43.09;47.06;;
61095;Laerm;20450;49.074;9.158;2024-01-11T05:59:06;44.49;42.93;48.81;;
61095;Laerm;20450;49.074;9.158;2024-01-11T06:01:40;44.66;43.04;47.20;;
61095;Laerm;20450;49.074;9.158;2024-01-11T06:04:07;44.63;42.71;50.45;;
61095;Laerm;20450;49.074;9.158;2024-01-11T06:06:37;44.60;42.93;49.16;;
61095;Laerm;20450;49.074;9.158;2024-01-11T06:09:06;44.57;42.53;51.75;;
61095;Laerm;20450;49.074;9.158;2024-01-11T06:11:33;44.28;42.76;51.21;;
61095;Laerm;20450;49.074;9.158;2024-01-11T06:14:00;44.25;42.76;52.48;;
61095;Laerm;20450;49.074;9.158;2024-01-11T06:16:27;44.18;42.59;50.23;;
61095;Laerm;20450;49.074;9.158;2024-01-11T06:18:54;44.30;42.42;47.65;;
61095;Laerm;20450;49.074;9.158;2024-01-11T06:21:21;44.83;43.04;56.10;;
61095;Laerm;20450;49.074;9.158;2024-01-11T06:23:51;44.49;42.76;50.93;;
61095;Laerm;20450;49.074;9.158;2024-01-11T06:26:23;44.35;42.65;50.83;;
61095;Laerm;20450;49.074;9.158;2024-01-11T06:28:50;44.20;42.65;48.43;;
61095;Laerm;20450;49.074;9.158;2024-01-11T06:31:17;44.07;42.53;54.46;;
61095;Laerm;20450;49.074;9.158;2024-01-11T06:33:44;44.32;42.82;49.84;;
61095;Laerm;20450;49.074;9.158;2024-01-11T06:36:17;44.40;42.65;57.04;;
61095;Laerm;20450;49.074;9.158;2024-01-11T06:38:44;44.15;42.59;48.10;;
61095;Laerm;20450;49.074;9.158;2024-01-11T06:41:13;44.21;42.41;48.02;;
61095;Laerm;20450;49.074;9.158;2024-01-11T06:43:43;44.13;42.22;49.89;;
61095;Laerm;20450;49.074;9.158;2024-01-11T06:46:11;44.17;42.59;52.84;;
61095;Laerm;20450;49.074;9.158;2024-01-11T06:48:39;44.42;42.82;49.29;;
61095;Laerm;20450;49.074;9.158;2024-01-11T06:51:07;44.63;42.53;50.08;;
61095;Laerm;20450;49.074;9.158;2024-01-11T06:53:38;44.50;42.98;49.41;;
61095;Laerm;20450;49.074;9.158;2024-01-11T06:56:14;44.31;42.65;50.51;;
61095;Laerm;20450;49.074;9.158;2024-01-11T06:58:44;44.12;42.65;47.83;;
61095;Laerm;20450;49.074;9.158;2024-01-11T07:01:11;44.15;42.47;52.84;;
61095;Laerm;20450;49.074;9.158;2024-01-11T07:03:39;43.99;42.35;48.67;;
61095;Laerm;20450;49.074;9.158;2024-01-11T07:06:07;44.12;42.53;47.48;;
61095;Laerm;20450;49.074;9.158;2024-01-11T07:08:35;44.07;42.59;47.18;;
61095;Laerm;20450;49.074;9.158;2024-01-11T07:11:05;43.96;42.29;45.88;;
61095;Laerm;20450;49.074;9.158;2024-01-11T07:13:32;44.24;42.82;47.86;;
61095;Laerm;20450;49.074;9.158;2024-01-11T07:16:05;44.71;43.04;50.36;;
61095;Laerm;20450;49.074;9.158;2024-01-11T07:18:32;44.50;42.88;56.44;;
61095;Laerm;20450;49.074;9.158;2024-01-11T07:21:00;44.36;42.88;52.73;;
61095;Laerm;20450;49.074;9.158;2024-01-11T07:23:28;44.57;43.04;51.27;;
61095;Laerm;20450;49.074;9.158;2024-01-11T07:25:56;44.61;43.29;50.62;;
61095;Laerm;20450;49.074;9.158;2024-01-11T07:28:23;44.68;42.76;52.02;;
61095;Laerm;20450;49.074;9.158;2024-01-11T07:30:53;44.30;42.76;48.58;;
61095;Laerm;20450;49.074;9.158;2024-01-11T07:33:22;44.41;43.00;50.52;;
61095;Laerm;20450;49.074;9.158;2024-01-11T07:35:52;44.30;42.76;51.06;;
61095;Laerm;20450;49.074;9.158;2024-01-11T07:38:22;44.42;42.53;48.03;;
61095;Laerm;20450;49.074;9.158;2024-01-11T07:40:50;44.38;42.93;46.02;;
61095;Laerm;20450;49.074;9.158;2024-01-11T07:43:19;44.34;42.59;49.35;;
61095;Laerm;20450;49.074;9.158;2024-01-11T07:45:48;44.07;42.47;47.48;;
61095;Laerm;20450;49.074;9.158;2024-01-11T07:48:17;44.04;42.41;49.50;;
61095;Laerm;20450;49.074;9.158;2024-01-11T07:50:50;44.26;42.35;59.44;;
61095;Laerm;20450;49.074;9.158;2024-01-11T07:53:17;43.86;42.22;46.02;;
61095;Laerm;20450;49.074;9.158;2024-01-11T07:55:44;43.84;42.22;49.00;;
61095;Laerm;20450;49.074;9.158;2024-01-11T07:58:11;43.69;41.96;47.26;;
61095;Laerm;20450;49.074;9.158;2024-01-11T08:00:40;43.82;42.16;45.69;;
61095;Laerm;20450;49.074;9.158;2024-01-11T08:03:10;43.93;42.22;53.65;;
61095;Laerm;20450;49.074;9.158;2024-01-11T08:05:38;43.86;42.47;45.97;;
61095;Laerm;20450;49.074;9.158;2024-01-11T08:08:08;44.08;42.53;55.71;;
61095;Laerm;20450;49.074;9.158;2024-01-11T08:10:35;44.12;42.29;46.55;;
61095;Laerm;20450;49.074;9.158;2024-01-11T08:13:04;44.13;42.76;45.77;;
61095;Laerm;20450;49.074;9.158;2024-01-11T08:15:31;43.98;42.47;46.40;;
61095;Laerm;20450;49.074;9.158;2024-01-11T08:17:58;45.35;42.53;68.16;;
61095;Laerm;20450;49.074;9.158;2024-01-11T08:20:25;44.87;42.35;60.22;;
61095;Laerm;20450;49.074;9.158;2024-01-11T08:22:52;44.61;42.98;60.73;;
61095;Laerm;20450;49.074;9.158;2024-01-11T08:25:22;44.41;42.82;48.71;;
61095;Laerm;20450;49.074;9.158;2024-01-11T08:27:58;44.42;42.76;48.94;;
61095;Laerm;20450;49.074;9.158;2024-01-11T08:30:25;46.27;43.49;56.76;;
61095;Laerm;20450;49.074;9.158;2024-01-11T08:32:53;47.94;42.98;68.28;;
61095;Laerm;20450;49.074;9.158;2024-01-11T08:35:20;44.53;42.93;49.34;;
61095;Laerm;20450;49.074;9.158;2024-01-11T08:37:48;44.41;42.71;50.01;;
61095;Laerm;20450;49.074;9.158;2024-01-11T08:40:27;44.47;42.65;52.24;;
61095;Laerm;20450;49.074;9.158;2024-01-11T08:42:54;44.54;42.82;51.84;;
61095;Laerm;20450;49.074;9.158;2024-01-11T08:45:22;44.57;42.88;48.10;;
61095;Laerm;20450;49.074;9.158;2024-01-11T08:47:51;44.63;43.19;51.11;;
61095;Laerm;20450;49.074;9.158;2024-01-11T08:50:19;45.01;42.93;53.81;;
61095;Laerm;20450;49.074;9.158;2024-01-11T08:52:50;44.51;43.19;47.12;;
61095;Laerm;20450;49.074;9.158;2024-01-11T08:55:18;44.74;43.24;48.26;;
61095;Laerm;20450;49.074;9.158;2024-01-11T08:57:47;44.90;43.24;54.27;;
61095;Laerm;20450;49.074;9.158;2024-01-11T09:00:14;45.25;43.39;50.70;;
61095;Laerm;20450;49.074;9.158;2024-01-11T09:02:41;45.62;43.94;47.88;;
61095;Laerm;20450;49.074;9.158;2024-01-11T09:05:09;45.93;44.03;51.36;;
61095;Laerm;20450;49.074;9.158;2024-01-11T09:07:37;45.80;43.77;51.12;;
61095;Laerm;20450;49.074;9.158;2024-01-11T09:10:06;46.47;44.56;54.12;;
61095;Laerm;20450;49.074;9.158;2024-01-11T09:12:39;46.01;44.20;51.81;;
61095;Laerm;20450;49.074;9.158;2024-01-11T09:15:08;45.94;44.35;52.14;;
61095;Laerm;20450;49.074;9.158;2024-01-11T09:17:35;46.21;43.99;62.67;;
61095;Laerm;20450;49.074;9.158;2024-01-11T09:20:04;45.97;44.19;51.03;;
61095;Laerm;20450;49.074;9.158;2024-01-11T09:22:32;46.36;44.54;55.73;;
61095;Laerm;20450;49.074;9.158;2024-01-11T09:25:00;45.93;43.86;50.76;;
61095;Laerm;20450;49.074;9.158;2024-01-11T09:27:27;45.92;44.03;50.72;;
61095;Laerm;20450;49.074;9.158;2024-01-11T09:29:55;46.07;44.03;51.60;;
61095;Laerm;20450;49.074;9.158;2024-01-11T09:32:27;46.15;44.31;51.63;;
61095;Laerm;20450;49.074;9.158;2024-01-11T09:34:54;46.07;44.07;54.08;;
61095;Laerm;20450;49.074;9.158;2024-01-11T09:37:21;46.54;44.51;55.86;;
61095;Laerm;20450;49.074;9.158;2024-01-11T09:39:50;46.26;44.35;52.59;;
61095;Laerm;20450;49.074;9.158;2024-01-11T09:42:19;46.33;44.39;49.65;;
61095;Laerm;20450;49.074;9.158;2024-01-11T09:44:46;46.41;43.99;49.89;;
61095;Laerm;20450;49.074;9.158;2024-01-11T09:47:16;46.16;44.23;50.00;;
61095;Laerm;20450;49.074;9.158;2024-01-11T09:49:48;45.99;44.11;48.25;;
61095;Laerm;20450;49.074;9.158;2024-01-11T09:52:19;46.22;44.07;52.07;;
61095;Laerm;20450;49.074;9.158;2024-01-11T09:54:47;46.10;44.07;50.69;;
61095;Laerm;20450;49.074;9.158;2024-01-11T09:57:21;46.75;44.58;51.76;;
61095;Laerm;20450;49.074;9.158;2024-01-11T09:59:57;47.21;43.99;59.42;;
61095;Laerm;20450;49.074;9.158;2024-01-11T10:02:25;46.43;44.35;57.10;;
61095;Laerm;20450;49.074;9.158;2024-01-11T10:04:54;46.59;44.62;52.33;;
61095;Laerm;20450;49.074;9.158;2024-01-11T10:07:23;46.56;44.58;53.40;;
61095;Laerm;20450;49.074;9.158;2024-01-11T10:09:52;46.39;44.39;53.29;;
61095;Laerm;20450;49.074;9.158;2024-01-11T10:12:20;46.57;44.80;49.18;;
61095;Laerm;20450;49.074;9.158;2024-01-11T10:14:47;47.29;44.62;53.67;;
61095;Laerm;20450;49.074;9.158;2024-01-11T10:17:15;46.66;44.76;49.93;;
61095;Laerm;20450;49.074;9.158;2024-01-11T10:19:54;46.95;44.19;53.66;;
61095;Laerm;20450;49.074;9.158;2024-01-11T10:22:24;46.76;44.90;49.06;;
61095;Laerm;20450;49.074;9.158;2024-01-11T10:25:08;46.25;44.23;48.63;;
61095;Laerm;20450;49.074;9.158;2024-01-11T10:27:36;46.40;44.11;56.96;;
61095;Laerm;20450;49.074;9.158;2024-01-11T10:30:05;46.77;44.58;53.26;;
61095;Laerm;20450;49.074;9.158;2024-01-11T10:32:32;46.70;44.62;52.37;;
61095;Laerm;20450;49.074;9.158;2024-01-11T10:35:01;46.41;44.39;52.27;;
61095;Laerm;20450;49.074;9.158;2024-01-11T10:37:32;46.71;44.31;56.24;;
61095;Laerm;20450;49.074;9.158;2024-01-11T10:40:04;46.46;44.19;49.14;;
61095;Laerm;20450;49.074;9.158;2024-01-11T10:42:35;46.63;43.72;63.58;;
61095;Laerm;20450;49.074;9.158;2024-01-11T10:45:12;46.75;43.94;55.76;;
61095;Laerm;20450;49.074;9.158;2024-01-11T10:47:50;46.30;44.43;49.68;;
61095;Laerm;20450;49.074;9.158;2024-01-11T10:50:20;46.52;43.86;60.60;;
61095;Laerm;20450;49.074;9.158;2024-01-11T10:53:08;46.82;43.58;52.37;;
61095;Laerm;20450;49.074;9.158;2024-01-11T10:55:41;46.62;44.34;51.44;;
61095;Laerm;20450;49.074;9.158;2024-01-11T10:58:09;46.73;44.39;50.52;;
61095;Laerm;20450;49.074;9.158;2024-01-11T11:00:37;46.73;44.15;52.30;;
61095;Laerm;20450;49.074;9.158;2024-01-11T11:03:07;46.81;44.43;53.79;;
61095;Laerm;20450;49.074;9.158;2024-01-11T11:05:38;46.52;44.31;58.78;;
61095;Laerm;20450;49.074;9.158;2024-01-11T11:08:10;46.51;44.19;51.34;;
61095;Laerm;20450;49.074;9.158;2024-01-11T11:10:40;46.67;44.39;52.41;;
61095;Laerm;20450;49.074;9.158;2024-01-11T11:13:09;46.99;44.58;52.19;;
61095;Laerm;20450;49.074;9.158;2024-01-11T11:15:38;46.56;44.27;50.67;;
61095;Laerm;20450;49.074;9.158;2024-01-11T11:18:06;46.07;44.15;59.24;;
61095;Laerm;20450;49.074;9.158;2024-01-11T11:20:34;46.27;44.35;53.07;;
61095;Laerm;20450;49.074;9.158;2024-01-11T11:23:08;46.51;43.90;57.39;;
61095;Laerm;20450;49.074;9.158;2024-01-11T11:25:40;47.23;44.19;63.84;;
61095;Laerm;20450;49.074;9.158;2024-01-11T11:28:07;46.46;44.35;56.22;;
61095;Laerm;20450;49.074;9.158;2024-01-11T11:30:38;46.58;44.43;51.47;;
61095;Laerm;20450;49.074;9.158;2024-01-11T11:33:10;46.57;44.31;50.35;;
61095;Laerm;20450;49.074;9.158;2024-01-11T11:35:38;46.57;44.11;55.34;;
61095;Laerm;20450;49.074;9.158;2024-01-11T11:38:08;47.12;44.80;53.55;;
61095;Laerm;20450;49.074;9.158;2024-01-11T11:40:38;46.42;44.43;52.41;;
61095;Laerm;20450;49.074;9.158;2024-01-11T11:43:06;46.90;44.65;54.57;;
61095;Laerm;20450;49.074;9.158;2024-01-11T11:45:34;46.38;44.58;49.32;;
61095;Laerm;20450;49.074;9.158;2024-01-11T11:48:49;46.70;44.27;60.88;;
61095;Laerm;20450;49.074;9.158;2024-01-11T11:51:18;46.52;44.35;51.16;;
61095;Laerm;20450;49.074;9.158;2024-01-11T11:53:49;46.50;44.03;49.93;;
61095;Laerm;20450;49.074;9.158;2024-01-11T11:56:18;46.99;44.39;54.95;;
61095;Laerm;20450;49.074;9.158;2024-01-11T11:58:47;46.35;44.43;48.60;;
61095;Laerm;20450;49.074;9.158;2024-01-11T12:01:16;46.40;44.39;54.62;;
61095;Laerm;20450;49.074;9.158;2024-01-11T12:03:46;46.24;44.27;52.02;;
61095;Laerm;20450;49.074;9.158;2024-01-11T12:06:14;46.30;44.45;49.81;;
61095;Laerm;20450;49.074;9.158;2024-01-11T12:08:43;46.62;44.69;50.51;;
61095;Laerm;20450;49.074;9.158;2024-01-11T12:11:14;46.77;44.42;54.75;;
61095;Laerm;20450;49.074;9.158;2024-01-11T12:13:42;46.59;44.39;54.21;;
61095;Laerm;20450;49.074;9.158;2024-01-11T12:16:09;47.21;44.80;53.37;;
61095;Laerm;20450;49.074;9.158;2024-01-11T12:18:36;46.39;44.31;51.28;;
61095;Laerm;20450;49.074;9.158;2024-01-11T12:21:04;46.91;44.35;54.42;;
61095;Laerm;20450;49.074;9.158;2024-01-11T12:23:33;47.00;44.76;51.79;;
61095;Laerm;20450;49.074;9.158;2024-01-11T12:26:02;46.48;44.31;50.50;;
61095;Laerm;20450;49.074;9.158;2024-01-11T12:28:31;46.37;44.47;53.82;;
61095;Laerm;20450;49.074;9.158;2024-01-11T12:31:01;46.49;44.54;50.28;;
61095;Laerm;20450;49.074;9.158;2024-01-11T12:33:28;47.06;44.69;54.21;;
61095;Laerm;20450;49.074;9.158;2024-01-11T12:35:56;46.40;44.35;50.34;;
61095;Laerm;20450;49.074;9.158;2024-01-11T12:38:27;46.46;44.54;53.93;;
61095;Laerm;20450;49.074;9.158;2024-01-11T12:40:54;46.55;44.11;55.99;;
61095;Laerm;20450;49.074;9.158;2024-01-11T12:43:21;46.62;44.76;49.28;;
61095;Laerm;20450;49.074;9.158;2024-01-11T12:45:50;46.64;44.47;53.48;;
61095;Laerm;20450;49.074;9.158;2024-01-11T12:48:17;46.84;44.73;51.17;;
61095;Laerm;20450;49.074;9.158;2024-01-11T12:50:45;46.90;44.58;52.03;;
61095;Laerm;20450;49.074;9.158;2024-01-11T12:53:14;46.88;44.07;53.06;;
61095;Laerm;20450;49.074;9.158;2024-01-11T12:55:41;46.45;44.47;49.79;;
61095;Laerm;20450;49.074;9.158;2024-01-11T12:58:23;47.32;44.69;56.86;;
61095;Laerm;20450;49.074;9.158;2024-01-11T13:00:52;46.87;44.35;52.09;;
61095;Laerm;20450;49.074;9.158;2024-01-11T13:03:19;46.53;44.15;50.81;;
61095;Laerm;20450;49.074;9.158;2024-01-11T13:05:47;46.87;44.58;51.50;;
61095;Laerm;20450;49.074;9.158;2024-01-11T13:08:14;46.31;44.23;50.87;;
61095;Laerm;20450;49.074;9.158;2024-01-11T13:10:43;46.84;44.35;54.43;;
61095;Laerm;20450;49.074;9.158;2024-01-11T13:13:10;47.52;44.47;66.86;;
61095;Laerm;20450;49.074;9.158;2024-01-11T13:15:37;46.64;44.31;61.38;;
61095;Laerm;20450;49.074;9.158;2024-01-11T13:18:07;46.60;44.39;49.87;;
61095;Laerm;20450;49.074;9.158;2024-01-11T13:20:34;46.72;44.65;49.44;;
61095;Laerm;20450;49.074;9.158;2024-01-11T13:23:15;47.37;44.54;55.76;;
61095;Laerm;20450;49.074;9.158;2024-01-11T13:25:44;46.42;44.39;49.89;;
61095;Laerm;20450;49.074;9.158;2024-01-11T13:28:12;46.62;44.16;52.98;;
61095;Laerm;20450;49.074;9.158;2024-01-11T13:30:40;46.92;44.54;57.57;;
61095;Laerm;20450;49.074;9.158;2024-01-11T13:33:11;46.54;44.65;49.73;;
61095;Laerm;20450;49.074;9.158;2024-01-11T13:35:40;46.95;44.51;56.31;;
61095;Laerm;20450;49.074;9.158;2024-01-11T13:38:09;46.54;44.58;53.15;;
61095;Laerm;20450;49.074;9.158;2024-01-11T13:40:37;46.39;44.39;49.38;;
61095;Laerm;20450;49.074;9.158;2024-01-11T13:43:05;46.34;44.27;50.80;;
61095;Laerm;20450;49.074;9.158;2024-01-11T13:45:33;46.61;44.35;50.33;;
61095;Laerm;20450;49.074;9.158;2024-01-11T13:48:02;46.78;44.65;51.25;;
61095;Laerm;20450;49.074;9.158;2024-01-11T13:50:31;46.65;44.35;51.30;;
61095;Laerm;20450;49.074;9.158;2024-01-11T13:53:00;46.59;44.23;52.18;;